Time;durP1;ratioP1;P1;durP2;ratioP2;P2;SDS_P1;SDS_P2;PMS_P1;PMS_P2;Temp;Humidity;BMP_temperature;BMP_pressure;BME280_temperature;BME280_humidity;BME280_pressure;Samples;Min_cycle;Max_cycle;Signal;HPM_P1;HPM_P2
2022/10/29 00:01:23;;;;;;;15.35;7.15;;;;;;;-146.48;100.00;60459.00;5302857;28;20056;-69
2022/10/29 00:03:54;;;;;;;13.98;7.45;;;;;;;-146.48;100.00;60459.00;5301844;28;20039;-69
2022/10/29 00:06:27;;;;;;;18.55;7.70;;;;;;;-146.48;100.00;60459.00;5302885;28;20020;-69
2022/10/29 00:08:58;;;;;;;14.73;6.97;;;;;;;-146.48;100.00;60459.00;5303021;28;20032;-70
2022/10/29 00:11:30;;;;;;;17.45;7.30;;;;;;;-146.48;100.00;60459.00;5301726;28;20024;-71
2022/10/29 00:14:01;;;;;;;13.77;7.20;;;;;;;-146.48;100.00;60459.00;5302901;28;20032;-70
2022/10/29 00:16:37;;;;;;;13.48;6.93;;;;;;;-146.48;100.00;60459.00;5302433;28;20443;-70
2022/10/29 00:19:09;;;;;;;14.48;7.53;;;;;;;-146.48;100.00;60459.00;5301990;28;20113;-70
2022/10/29 00:21:40;;;;;;;14.40;7.65;;;;;;;-146.48;100.00;60459.00;5302171;28;20119;-70
2022/10/29 00:24:11;;;;;;;15.85;7.28;;;;;;;-146.48;100.00;60459.00;5302644;28;20063;-70
2022/10/29 00:26:43;;;;;;;16.60;7.70;;;;;;;-146.48;100.00;60459.00;5301164;28;20088;-70
2022/10/29 00:29:14;;;;;;;15.20;7.13;;;;;;;-146.48;100.00;60459.00;5302600;28;20066;-70
2022/10/29 00:31:45;;;;;;;14.18;6.85;;;;;;;-146.48;100.00;60459.00;5301351;28;20032;-70
2022/10/29 00:34:16;;;;;;;13.98;7.18;;;;;;;-146.48;100.00;60459.00;5302454;28;20062;-70
2022/10/29 00:36:48;;;;;;;13.98;7.18;;;;;;;-146.48;100.00;60459.00;5301538;28;20035;-70
2022/10/29 00:39:19;;;;;;;13.60;7.57;;;;;;;-146.48;100.00;60459.00;5302036;28;20475;-70
2022/10/29 00:41:51;;;;;;;11.18;6.93;;;;;;;-146.48;100.00;60459.00;5301966;28;20027;-70
2022/10/29 00:44:34;;;;;;;17.55;8.07;;;;;;;-146.48;100.00;60459.00;5302468;28;20429;-69
2022/10/29 00:47:18;;;;;;;14.80;7.07;;;;;;;-146.48;100.00;60459.00;5301782;28;20360;-70
2022/10/29 00:49:56;;;;;;;12.25;7.00;;;;;;;-146.48;100.00;60459.00;5301763;28;20069;-70
2022/10/29 00:52:31;;;;;;;14.95;7.13;;;;;;;-146.48;100.00;60459.00;5301989;28;20074;-70
2022/10/29 00:55:05;;;;;;;11.75;6.68;;;;;;;-146.48;100.00;60459.00;5301629;28;20035;-70
2022/10/29 00:57:45;;;;;;;16.15;7.53;;;;;;;-146.48;100.00;60459.00;5301819;28;20059;-70
2022/10/29 01:00:18;;;;;;;11.07;6.45;;;;;;;-146.48;100.00;60459.00;5301721;28;20471;-70
2022/10/29 01:02:49;;;;;;;11.38;6.85;;;;;;;-146.48;100.00;60459.00;5301883;28;20032;-70
2022/10/29 01:05:24;;;;;;;13.70;7.60;;;;;;;-146.48;100.00;60459.00;5302238;28;20031;-70
2022/10/29 01:07:55;;;;;;;13.38;7.40;;;;;;;-146.48;100.00;60459.00;5301153;28;20528;-70
2022/10/29 01:10:42;;;;;;;15.70;7.07;;;;;;;-146.48;100.00;60459.00;5301751;28;20054;-70
2022/10/29 01:13:38;;;;;;;14.05;7.43;;;;;;;-146.48;100.00;60459.00;5302409;28;20460;-70
2022/10/29 01:16:23;;;;;;;12.10;6.68;;;;;;;-146.48;100.00;60459.00;5301306;28;20394;-70
2022/10/29 01:19:03;;;;;;;10.38;6.65;;;;;;;-146.48;100.00;60459.00;5301540;28;20036;-70
2022/10/29 01:21:44;;;;;;;15.90;7.90;;;;;;;-146.48;100.00;60459.00;5300593;28;20039;-70
2022/10/29 01:24:57;;;;;;;11.13;7.65;;;;;;;-146.48;100.00;60459.00;5302089;28;20028;-70
2022/10/29 01:27:48;;;;;;;13.80;7.28;;;;;;;-146.48;100.00;60459.00;5215981;28;20037;-70
2022/10/29 01:30:50;;;;;;;14.68;7.18;;;;;;;-146.48;100.00;60459.00;5216536;28;20131;-70
2022/10/29 01:33:27;;;;;;;22.27;7.80;;;;;;;-146.48;100.00;60459.00;5292541;28;20048;-70
2022/10/29 01:36:17;;;;;;;11.98;8.00;;;;;;;-146.48;100.00;60459.00;5301331;28;20020;-70
2022/10/29 01:38:59;;;;;;;18.48;7.72;;;;;;;-146.48;100.00;60459.00;5301457;28;20487;-70
2022/10/29 01:41:46;;;;;;;16.20;7.38;;;;;;;-146.48;100.00;60459.00;5301353;28;20031;-70
2022/10/29 01:44:36;;;;;;;14.30;7.13;;;;;;;-146.48;100.00;60459.00;5301059;28;20080;-70
2022/10/29 01:47:14;;;;;;;13.40;7.15;;;;;;;-146.48;100.00;60459.00;5302021;28;20501;-70
2022/10/29 01:49:50;;;;;;;15.02;8.00;;;;;;;-146.48;100.00;60459.00;5301830;28;20601;-70
2022/10/29 01:52:22;;;;;;;14.80;7.00;;;;;;;-146.48;100.00;60459.00;5305565;28;20056;-69
2022/10/29 01:54:53;;;;;;;12.35;7.78;;;;;;;-146.48;100.00;60459.00;5305058;28;20546;-69
2022/10/29 01:57:32;;;;;;;14.43;7.65;;;;;;;-146.48;100.00;60459.00;5304291;28;20040;-69
2022/10/29 02:00:13;;;;;;;14.75;8.13;;;;;;;-146.48;100.00;60459.00;5305334;28;20024;-69
2022/10/29 02:03:11;;;;;;;11.40;7.22;;;;;;;-146.48;100.00;60459.00;5304619;28;20435;-70
2022/10/29 02:06:04;;;;;;;13.13;8.07;;;;;;;-146.48;100.00;60459.00;5304739;28;20028;-69
2022/10/29 02:09:00;;;;;;;14.63;7.32;;;;;;;-146.48;100.00;60459.00;5304555;28;20437;-69
2022/10/29 02:11:56;;;;;;;15.68;7.68;;;;;;;-146.48;100.00;60459.00;5304029;28;20498;-69
2022/10/29 02:14:32;;;;;;;14.13;7.15;;;;;;;-146.48;100.00;60459.00;5304617;28;20039;-70
2022/10/29 02:17:05;;;;;;;12.80;7.68;;;;;;;-146.48;100.00;60459.00;5304285;28;20039;-69
2022/10/29 02:19:37;;;;;;;14.77;7.80;;;;;;;-146.48;100.00;60459.00;5304666;28;20031;-69
2022/10/29 02:22:08;;;;;;;13.88;8.02;;;;;;;-146.48;100.00;60459.00;5305062;28;20027;-69
2022/10/29 02:24:39;;;;;;;12.52;7.57;;;;;;;-146.48;100.00;60459.00;5303453;28;20043;-69
2022/10/29 02:27:11;;;;;;;12.65;7.13;;;;;;;-146.48;100.00;60459.00;5304731;28;20032;-69
2022/10/29 02:29:42;;;;;;;12.35;7.38;;;;;;;-146.48;100.00;60459.00;5304069;28;20491;-69
2022/10/29 02:32:13;;;;;;;14.18;7.70;;;;;;;-146.48;100.00;60459.00;5304015;28;20401;-69
2022/10/29 02:34:44;;;;;;;14.00;7.45;;;;;;;-146.48;100.00;60459.00;5304205;28;20113;-70
2022/10/29 02:37:16;;;;;;;14.35;7.47;;;;;;;-146.48;100.00;60459.00;5304721;28;20020;-69
2022/10/29 02:39:47;;;;;;;13.57;8.02;;;;;;;-146.48;100.00;60459.00;5303345;28;20108;-70
2022/10/29 02:42:18;;;;;;;12.15;8.05;;;;;;;-146.48;100.00;60459.00;5304546;28;20028;-70
2022/10/29 02:44:49;;;;;;;15.88;8.57;;;;;;;-146.48;100.00;60459.00;5303668;28;20036;-70
2022/10/29 02:47:21;;;;;;;12.68;7.45;;;;;;;-146.48;100.00;60459.00;5303702;28;20487;-69
2022/10/29 02:49:52;;;;;;;12.00;7.60;;;;;;;-146.48;100.00;60459.00;5303832;28;20051;-70
2022/10/29 02:52:23;;;;;;;15.02;7.75;;;;;;;-146.48;100.00;60459.00;5303213;28;20028;-69
2022/10/29 02:54:55;;;;;;;12.00;7.07;;;;;;;-146.48;100.00;60459.00;5304254;28;20047;-69
2022/10/29 02:57:26;;;;;;;17.35;8.98;;;;;;;-146.48;100.00;60459.00;5303977;28;20028;-70
2022/10/29 02:59:57;;;;;;;15.80;8.05;;;;;;;-146.48;100.00;60459.00;5303127;28;20024;-69
2022/10/29 03:02:28;;;;;;;12.07;7.55;;;;;;;-146.48;100.00;60459.00;5303699;28;20197;-70
2022/10/29 03:05:00;;;;;;;17.40;7.95;;;;;;;-146.48;100.00;60459.00;5303934;28;20032;-69
2022/10/29 03:07:35;;;;;;;14.60;8.32;;;;;;;-146.48;100.00;60459.00;5302617;28;20025;-70
2022/10/29 03:10:07;;;;;;;14.10;8.13;;;;;;;-146.48;100.00;60459.00;5304143;28;20028;-69
2022/10/29 03:12:38;;;;;;;13.70;8.25;;;;;;;-146.48;100.00;60459.00;5303505;28;20024;-70
2022/10/29 03:15:10;;;;;;;15.95;7.78;;;;;;;-146.48;100.00;60459.00;5303146;28;20028;-70
2022/10/29 03:17:41;;;;;;;10.70;7.15;;;;;;;-146.48;100.00;60459.00;5303465;28;20028;-69
2022/10/29 03:20:12;;;;;;;15.68;9.05;;;;;;;-146.48;100.00;60459.00;5303896;28;20023;-69
2022/10/29 03:22:43;;;;;;;12.77;7.53;;;;;;;-146.48;100.00;60459.00;5302487;28;20084;-70
2022/10/29 03:25:15;;;;;;;14.70;8.10;;;;;;;-146.48;100.00;60459.00;5303468;28;20043;-69
2022/10/29 03:27:47;;;;;;;12.98;7.85;;;;;;;-146.48;100.00;60459.00;5302139;28;20494;-69
2022/10/29 03:30:18;;;;;;;16.27;8.02;;;;;;;-146.48;100.00;60459.00;5303440;28;20098;-69
2022/10/29 03:32:49;;;;;;;17.55;7.65;;;;;;;-146.48;100.00;60459.00;5303009;28;20020;-70
2022/10/29 03:35:21;;;;;;;12.02;7.82;;;;;;;-146.48;100.00;60459.00;5302895;28;20542;-69
2022/10/29 03:37:52;;;;;;;13.98;7.80;;;;;;;-146.48;100.00;60459.00;5302839;28;20024;-69
2022/10/29 03:40:23;;;;;;;13.73;7.60;;;;;;;-146.48;100.00;60459.00;5303005;28;20024;-69
2022/10/29 03:42:55;;;;;;;15.45;8.15;;;;;;;-146.48;100.00;60459.00;5302547;28;20039;-69
2022/10/29 03:45:26;;;;;;;12.07;7.20;;;;;;;-146.48;100.00;60459.00;5302932;28;20024;-69
2022/10/29 03:47:57;;;;;;;16.00;8.05;;;;;;;-146.48;100.00;60459.00;5303258;28;20108;-69
2022/10/29 03:50:28;;;;;;;14.00;7.60;;;;;;;-146.48;100.00;60459.00;5301835;28;20035;-70
2022/10/29 03:53:00;;;;;;;16.00;7.75;;;;;;;-146.48;100.00;60459.00;5303351;28;20463;-69
2022/10/29 03:55:31;;;;;;;12.32;7.55;;;;;;;-146.48;100.00;60459.00;5302163;28;20486;-70
2022/10/29 03:58:03;;;;;;;12.73;6.95;;;;;;;-146.48;100.00;60459.00;5303185;28;20178;-69
2022/10/29 04:00:34;;;;;;;16.27;7.68;;;;;;;-146.48;100.00;60459.00;5302605;28;20024;-69
2022/10/29 04:03:05;;;;;;;11.85;7.90;;;;;;;-146.48;100.00;60459.00;5302318;28;20024;-69
2022/10/29 04:05:37;;;;;;;14.15;7.47;;;;;;;-146.48;100.00;60459.00;5302551;28;20032;-69
2022/10/29 04:08:08;;;;;;;11.43;7.65;;;;;;;-146.48;100.00;60459.00;5303033;28;20063;-69
2022/10/29 04:10:44;;;;;;;14.40;8.10;;;;;;;-146.48;100.00;60459.00;5301674;28;20057;-69
2022/10/29 04:13:16;;;;;;;12.18;7.85;;;;;;;-146.48;100.00;60459.00;5302150;28;20023;-70
2022/10/29 04:15:51;;;;;;;13.43;7.47;;;;;;;-146.48;100.00;60459.00;5302113;28;20031;-69
2022/10/29 04:18:23;;;;;;;13.45;7.55;;;;;;;-146.48;100.00;60459.00;5302008;28;20360;-69
2022/10/29 04:21:00;;;;;;;14.63;7.90;;;;;;;-146.48;100.00;60459.00;5302380;28;20078;-69
2022/10/29 04:23:31;;;;;;;15.23;8.60;;;;;;;-146.48;100.00;60459.00;5302089;28;20028;-69
2022/10/29 04:26:02;;;;;;;13.45;8.02;;;;;;;-146.48;100.00;60459.00;5301742;28;20025;-70
2022/10/29 04:28:34;;;;;;;15.45;8.27;;;;;;;-146.48;100.00;60459.00;5301925;28;20020;-69
2022/10/29 04:31:06;;;;;;;13.85;8.18;;;;;;;-146.48;100.00;60459.00;5301996;28;20476;-69
2022/10/29 04:33:38;;;;;;;17.75;8.82;;;;;;;-146.48;100.00;60459.00;5302160;28;20035;-69
2022/10/29 04:36:10;;;;;;;18.83;9.80;;;;;;;-146.48;100.00;60459.00;5302483;28;20024;-70
2022/10/29 04:38:41;;;;;;;17.00;8.32;;;;;;;-146.48;100.00;60459.00;5301022;28;20050;-69
2022/10/29 04:41:12;;;;;;;14.43;8.25;;;;;;;-146.48;100.00;60459.00;5302388;28;20156;-70
2022/10/29 04:43:44;;;;;;;15.82;9.15;;;;;;;-146.48;100.00;60459.00;5301760;28;20481;-69
2022/10/29 04:46:15;;;;;;;14.68;8.90;;;;;;;-146.48;100.00;60459.00;5301772;28;20521;-70
2022/10/29 04:48:46;;;;;;;14.25;8.65;;;;;;;-146.48;100.00;60459.00;5301868;28;20069;-69
2022/10/29 04:51:23;;;;;;;14.05;8.35;;;;;;;-146.48;100.00;60459.00;5302382;28;20020;-69
2022/10/29 04:53:54;;;;;;;15.48;8.38;;;;;;;-146.48;100.00;60459.00;5301457;28;20043;-69
2022/10/29 04:56:27;;;;;;;17.40;9.10;;;;;;;-146.48;100.00;60459.00;5302041;28;20020;-70
2022/10/29 04:58:58;;;;;;;12.52;8.90;;;;;;;-146.48;100.00;60459.00;5301631;28;20028;-70
2022/10/29 05:01:29;;;;;;;16.58;9.10;;;;;;;-146.48;100.00;60459.00;5301748;28;20081;-70
2022/10/29 05:04:00;;;;;;;17.55;9.48;;;;;;;-146.48;100.00;60459.00;5302138;28;20149;-70
2022/10/29 05:06:32;;;;;;;17.00;9.20;;;;;;;-146.48;100.00;60459.00;5300986;28;20473;-70
2022/10/29 05:09:03;;;;;;;18.38;8.95;;;;;;;-146.48;100.00;60459.00;5302457;28;20029;-70
2022/10/29 05:11:34;;;;;;;16.55;8.70;;;;;;;-146.48;100.00;60459.00;5301479;28;20036;-70
2022/10/29 05:14:06;;;;;;;15.48;8.35;;;;;;;-146.48;100.00;60459.00;5301414;28;20368;-70
2022/10/29 05:16:37;;;;;;;13.63;8.35;;;;;;;-146.48;100.00;60459.00;5301710;28;20032;-70
2022/10/29 05:19:08;;;;;;;15.70;8.95;;;;;;;-146.48;100.00;60459.00;5302343;28;20055;-70
2022/10/29 05:21:40;;;;;;;15.07;8.48;;;;;;;-146.48;100.00;60459.00;5300830;28;20177;-70
2022/10/29 05:24:11;;;;;;;14.95;9.10;;;;;;;-146.48;100.00;60459.00;5304087;28;20036;-70
2022/10/29 05:26:42;;;;;;;13.63;8.85;;;;;;;-146.48;100.00;60459.00;5305895;28;20405;-70
2022/10/29 05:29:14;;;;;;;14.95;8.95;;;;;;;-146.48;100.00;60459.00;5305101;28;20059;-70
2022/10/29 05:31:45;;;;;;;17.42;8.63;;;;;;;-146.48;100.00;60459.00;5305759;28;20020;-70
2022/10/29 05:34:16;;;;;;;16.85;8.52;;;;;;;-146.48;100.00;60459.00;5305342;28;20146;-70
2022/10/29 05:36:48;;;;;;;18.30;10.43;;;;;;;-146.48;100.00;60459.00;5305232;28;20024;-70
2022/10/29 05:39:19;;;;;;;18.42;10.18;;;;;;;-146.48;100.00;60459.00;5305831;28;20125;-70
2022/10/29 05:41:50;;;;;;;20.25;10.35;;;;;;;-146.48;100.00;60459.00;5304495;28;20027;-72
2022/10/29 05:44:21;;;;;;;16.90;9.80;;;;;;;-146.48;100.00;60459.00;5305715;28;20143;-70
2022/10/29 05:46:53;;;;;;;16.88;9.48;;;;;;;-146.48;100.00;60459.00;5305142;28;20483;-70
2022/10/29 05:49:24;;;;;;;17.27;9.90;;;;;;;-146.48;100.00;60459.00;5304511;28;20019;-71
2022/10/29 05:51:55;;;;;;;19.67;10.25;;;;;;;-146.48;100.00;60459.00;5305609;28;20020;-70
2022/10/29 05:54:27;;;;;;;17.67;10.20;;;;;;;-146.48;100.00;60459.00;5305051;28;20035;-70
2022/10/29 05:56:58;;;;;;;21.45;11.45;;;;;;;-146.48;100.00;60459.00;5304785;28;20042;-69
2022/10/29 05:59:29;;;;;;;16.95;10.18;;;;;;;-146.48;100.00;60459.00;5305026;28;20419;-72
2022/10/29 06:02:00;;;;;;;18.02;10.70;;;;;;;-146.48;100.00;60459.00;5305460;28;20043;-70
2022/10/29 06:04:33;;;;;;;19.60;10.85;;;;;;;-146.48;100.00;60459.00;5303882;28;20031;-70
2022/10/29 06:07:04;;;;;;;18.20;10.52;;;;;;;-146.48;100.00;60459.00;5305356;28;20417;-70
2022/10/29 06:09:35;;;;;;;16.95;10.55;;;;;;;-146.48;100.00;60459.00;5303769;28;20031;-71
2022/10/29 06:12:07;;;;;;;20.40;10.95;;;;;;;-146.48;100.00;60459.00;5305122;28;20447;-70
2022/10/29 06:14:38;;;;;;;13.70;9.50;;;;;;;-146.48;100.00;60459.00;5304260;28;20389;-71
2022/10/29 06:17:09;;;;;;;18.33;10.45;;;;;;;-146.48;100.00;60459.00;5304142;28;20107;-70
2022/10/29 06:19:42;;;;;;;19.00;10.32;;;;;;;-146.48;100.00;60459.00;5304508;28;20034;-71
2022/10/29 06:22:13;;;;;;;17.05;9.90;;;;;;;-146.48;100.00;60459.00;5305062;28;20390;-70
2022/10/29 06:24:45;;;;;;;17.48;10.80;;;;;;;-146.48;100.00;60459.00;5303298;28;20034;-71
2022/10/29 06:27:16;;;;;;;16.85;9.65;;;;;;;-146.48;100.00;60459.00;5305108;28;20085;-70
2022/10/29 06:29:47;;;;;;;17.90;10.27;;;;;;;-146.48;100.00;60459.00;5304167;28;20055;-71
2022/10/29 06:32:18;;;;;;;22.20;9.75;;;;;;;-146.48;100.00;60459.00;5304311;28;20028;-71
2022/10/29 06:34:50;;;;;;;14.77;10.23;;;;;;;-146.48;100.00;60459.00;5303421;28;20026;-71
2022/10/29 06:37:21;;;;;;;19.23;10.43;;;;;;;-146.48;100.00;60459.00;5303832;28;20028;-69
2022/10/29 06:39:52;;;;;;;20.75;10.05;;;;;;;-146.48;100.00;60459.00;5304334;28;20395;-69
2022/10/29 06:42:23;;;;;;;18.38;10.60;;;;;;;-146.48;100.00;60459.00;5304504;28;20047;-72
2022/10/29 06:44:55;;;;;;;24.17;11.15;;;;;;;-146.48;100.00;60459.00;5303296;28;20058;-69
2022/10/29 06:47:26;;;;;;;19.70;11.07;;;;;;;-146.48;100.00;60459.00;5303783;28;20425;-70
2022/10/29 06:49:57;;;;;;;22.83;10.48;;;;;;;-146.48;100.00;60459.00;5304385;28;20371;-70
2022/10/29 06:52:28;;;;;;;19.50;10.48;;;;;;;-146.48;100.00;60459.00;5303233;28;20106;-70
2022/10/29 06:55:01;;;;;;;14.48;9.45;;;;;;;-146.48;100.00;60459.00;5304312;28;20028;-70
2022/10/29 06:57:32;;;;;;;13.93;8.85;;;;;;;-146.48;100.00;60459.00;5303675;28;20034;-70
2022/10/29 07:00:04;;;;;;;21.25;9.50;;;;;;;-146.48;100.00;60459.00;5303614;28;20379;-72
2022/10/29 07:02:36;;;;;;;18.30;9.85;;;;;;;-146.48;100.00;60459.00;5303962;28;20024;-70
2022/10/29 07:05:07;;;;;;;19.05;9.98;;;;;;;-146.48;100.00;60459.00;5304159;28;20032;-71
2022/10/29 07:07:38;;;;;;;17.98;9.82;;;;;;;-146.48;100.00;60459.00;5302508;28;20043;-70
2022/10/29 07:10:10;;;;;;;17.23;9.63;;;;;;;-146.48;100.00;60459.00;5304180;28;20480;-70
2022/10/29 07:12:42;;;;;;;16.75;10.55;;;;;;;-146.48;100.00;60459.00;5302539;28;20043;-70
2022/10/29 07:15:14;;;;;;;17.88;10.52;;;;;;;-146.48;100.00;60459.00;5304071;28;20024;-70
2022/10/29 07:17:55;;;;;;;15.25;9.57;;;;;;;-146.48;100.00;60459.00;5303223;28;20036;-71
2022/10/29 07:20:29;;;;;;;14.07;9.70;;;;;;;-146.48;100.00;60459.00;5302094;28;20063;-70
2022/10/29 07:23:00;;;;;;;19.33;10.50;;;;;;;-146.48;100.00;60459.00;5303017;28;20175;-69
2022/10/29 07:25:33;;;;;;;20.42;10.15;;;;;;;-146.48;100.00;60459.00;5303175;28;20115;-70
2022/10/29 07:28:13;;;;;;;19.15;9.63;;;;;;;-146.48;100.00;60459.00;5302505;28;20024;-71
2022/10/29 07:30:45;;;;;;;18.15;9.68;;;;;;;-146.48;100.00;60459.00;5302820;28;20111;-70
2022/10/29 07:33:17;;;;;;;17.05;9.32;;;;;;;-146.48;100.00;60459.00;5303382;28;20147;-70
2022/10/29 07:35:48;;;;;;;16.92;9.35;;;;;;;-146.48;100.00;60459.00;5301747;28;20035;-71
2022/10/29 07:38:19;;;;;;;22.63;10.40;;;;;;;-146.48;100.00;60459.00;5303305;28;20028;-71
2022/10/29 07:40:51;;;;;;;19.13;9.95;;;;;;;-146.48;100.00;60459.00;5301883;28;20028;-71
2022/10/29 07:43:23;;;;;;;19.42;9.77;;;;;;;-146.48;100.00;60459.00;5303273;28;20032;-71
2022/10/29 07:45:54;;;;;;;15.10;9.27;;;;;;;-146.48;100.00;60459.00;5298125;28;20445;-70
2022/10/29 07:48:25;;;;;;;16.90;9.73;;;;;;;-146.48;100.00;60459.00;5300858;28;20020;-70
2022/10/29 07:51:00;;;;;;;17.73;9.75;;;;;;;-146.48;100.00;60459.00;5302728;28;20032;-70
2022/10/29 07:53:32;;;;;;;16.75;9.75;;;;;;;-146.48;100.00;60459.00;5302082;28;20095;-71
2022/10/29 07:56:03;;;;;;;14.10;8.70;;;;;;;-146.48;100.00;60459.00;5302433;28;20051;-71
2022/10/29 07:58:35;;;;;;;17.60;9.70;;;;;;;-146.48;100.00;60459.00;5301639;28;20052;-71
2022/10/29 08:01:06;;;;;;;18.15;9.13;;;;;;;-146.48;100.00;60459.00;5302685;28;20028;-70
2022/10/29 08:03:37;;;;;;;16.58;9.23;;;;;;;-146.48;100.00;60459.00;5301149;28;20073;-70
2022/10/29 08:06:09;;;;;;;14.98;9.50;;;;;;;-146.48;100.00;60459.00;5302913;28;20480;-69
2022/10/29 08:08:40;;;;;;;19.77;9.55;;;;;;;-146.48;100.00;60459.00;5301527;28;20051;-69
2022/10/29 08:11:11;;;;;;;17.90;8.63;;;;;;;-146.48;100.00;60459.00;5302223;28;20028;-69
2022/10/29 08:13:43;;;;;;;15.05;9.70;;;;;;;-146.48;100.00;60459.00;5302042;28;20040;-72
2022/10/29 08:16:14;;;;;;;15.40;8.80;;;;;;;-146.48;100.00;60459.00;5301925;28;20042;-69
2022/10/29 08:18:45;;;;;;;17.13;9.23;;;;;;;-146.48;100.00;60459.00;5301823;28;20474;-70
2022/10/29 08:21:17;;;;;;;16.05;9.25;;;;;;;-146.48;100.00;60459.00;5302373;28;20473;-69
2022/10/29 08:23:49;;;;;;;14.90;8.25;;;;;;;-146.48;100.00;60459.00;5301304;28;20417;-70
2022/10/29 08:26:20;;;;;;;14.57;8.85;;;;;;;-146.48;100.00;60459.00;5302556;28;20020;-70
2022/10/29 08:28:51;;;;;;;14.18;8.48;;;;;;;-146.48;100.00;60459.00;5301678;28;20051;-71
2022/10/29 08:31:22;;;;;;;17.33;8.68;;;;;;;-146.48;100.00;60459.00;5301834;28;20462;-70
2022/10/29 08:33:54;;;;;;;12.90;8.98;;;;;;;-146.48;100.00;60459.00;5301917;28;20040;-70
2022/10/29 08:36:25;;;;;;;13.77;8.07;;;;;;;-146.48;100.00;60459.00;5302379;28;20024;-70
2022/10/29 08:38:56;;;;;;;13.70;8.20;;;;;;;-146.48;100.00;60459.00;5301407;28;20024;-70
2022/10/29 08:41:39;;;;;;;12.02;7.32;;;;;;;-146.48;100.00;60459.00;5301989;28;20383;-71
2022/10/29 08:44:36;;;;;;;15.82;7.32;;;;;;;-146.48;100.00;60459.00;5301482;28;20052;-71
2022/10/29 08:47:12;;;;;;;11.65;6.68;;;;;;;-146.48;100.00;60459.00;5302207;28;20115;-71
2022/10/29 08:50:14;;;;;;;13.30;7.45;;;;;;;-146.48;100.00;60459.00;5301120;28;20023;-71
2022/10/29 08:52:47;;;;;;;12.93;6.88;;;;;;;-146.48;100.00;60459.00;5300940;28;20502;-72
2022/10/29 08:55:39;;;;;;;15.27;6.32;;;;;;;-146.48;100.00;60459.00;5302156;28;20032;-71
2022/10/29 08:58:20;;;;;;;9.85;6.18;;;;;;;-146.48;100.00;60459.00;5301791;28;20491;-71
2022/10/29 09:00:55;;;;;;;10.55;6.05;;;;;;;-146.48;100.00;60459.00;5305429;28;20028;-72
2022/10/29 09:03:30;;;;;;;11.88;5.93;;;;;;;-146.48;100.00;60459.00;5305932;28;20024;-72
2022/10/29 09:06:25;;;;;;;11.48;6.07;;;;;;;-146.48;100.00;60459.00;5305134;28;20073;-71
2022/10/29 09:09:30;;;;;;;11.77;6.20;;;;;;;-146.48;100.00;60459.00;5306035;28;20114;-71
2022/10/29 09:12:10;;;;;;;11.38;4.85;;;;;;;-146.48;100.00;60459.00;5305325;28;20063;-71
2022/10/29 09:14:55;;;;;;;13.45;5.28;;;;;;;-146.48;100.00;60459.00;5305776;28;20032;-71
2022/10/29 09:17:58;;;;;;;10.50;4.38;;;;;;;-146.48;100.00;60459.00;5305606;28;20024;-72
2022/10/29 09:20:49;;;;;;;9.95;5.07;;;;;;;-146.48;100.00;60459.00;5301264;28;20135;-72
2022/10/29 09:23:33;;;;;;;10.48;4.50;;;;;;;-146.48;100.00;60459.00;5305909;28;20020;-72
2022/10/29 09:26:14;;;;;;;7.70;4.05;;;;;;;-146.48;100.00;60459.00;5304867;28;20020;-72
2022/10/29 09:29:01;;;;;;;11.88;4.05;;;;;;;-146.48;100.00;60459.00;5305450;28;20032;-72
2022/10/29 09:31:34;;;;;;;13.82;7.50;;;;;;;-146.48;100.00;60459.00;5305219;28;20067;-72
2022/10/29 09:34:16;;;;;;;8.73;3.28;;;;;;;-146.48;100.00;60459.00;5305296;28;20024;-72
2022/10/29 09:36:48;;;;;;;13.70;4.03;;;;;;;-146.48;100.00;60459.00;5305453;28;20127;-72
2022/10/29 09:39:28;;;;;;;12.52;3.85;;;;;;;-146.48;100.00;60459.00;5306002;28;20384;-72
2022/10/29 09:42:10;;;;;;;9.38;3.33;;;;;;;-146.48;100.00;60459.00;5304772;28;20063;-72
2022/10/29 09:44:57;;;;;;;7.97;3.05;;;;;;;-146.48;100.00;60459.00;5304776;28;20477;-72
2022/10/29 09:47:38;;;;;;;7.60;2.88;;;;;;;-146.48;100.00;60459.00;5304432;28;20421;-73
2022/10/29 09:50:32;;;;;;;12.75;3.33;;;;;;;-146.48;100.00;60459.00;5305605;28;20523;-72
2022/10/29 09:53:04;;;;;;;12.88;3.75;;;;;;;-146.48;100.00;60459.00;5305247;28;20115;-72
2022/10/29 09:55:40;;;;;;;10.52;3.58;;;;;;;-146.48;100.00;60459.00;5304045;28;20131;-73
2022/10/29 09:58:20;;;;;;;6.50;3.28;;;;;;;-146.48;100.00;60459.00;5305342;28;20028;-72
2022/10/29 10:00:53;;;;;;;14.35;3.30;;;;;;;-146.48;100.00;60459.00;5304753;28;20380;-73
2022/10/29 10:03:29;;;;;;;15.65;3.88;;;;;;;-146.48;100.00;60459.00;5303903;28;20165;-71
2022/10/29 10:06:01;;;;;;;10.02;3.03;;;;;;;-146.48;100.00;60459.00;5305333;28;20031;-71
2022/10/29 10:08:34;;;;;;;8.73;3.03;;;;;;;-146.48;100.00;60459.00;5303863;28;20845;-71
2022/10/29 10:11:06;;;;;;;9.27;2.38;;;;;;;-146.48;100.00;60459.00;5303855;28;20066;-71
2022/10/29 10:13:51;;;;;;;11.43;2.70;;;;;;;-146.48;100.00;60459.00;5304449;28;20020;-72
2022/10/29 10:16:25;;;;;;;6.93;2.05;;;;;;;-146.48;100.00;60459.00;5303996;28;20063;-71
2022/10/29 10:18:57;;;;;;;11.48;3.72;;;;;;;-146.48;100.00;60459.00;5304820;28;20084;-71
2022/10/29 10:21:32;;;;;;;6.97;3.08;;;;;;;-146.48;100.00;60459.00;5304290;28;20029;-72
2022/10/29 10:24:27;;;;;;;11.05;4.43;;;;;;;-146.48;100.00;60459.00;5303722;28;20379;-72
2022/10/29 10:27:00;;;;;;;8.43;3.55;;;;;;;-146.48;100.00;60459.00;5304665;28;20031;-71
2022/10/29 10:29:31;;;;;;;6.55;1.92;;;;;;;-146.48;100.00;60459.00;5303216;28;20064;-71
2022/10/29 10:32:02;;;;;;;9.05;2.38;;;;;;;-146.48;100.00;60459.00;5304593;28;20056;-71
2022/10/29 10:34:33;;;;;;;9.40;2.85;;;;;;;-146.48;100.00;60459.00;5303703;28;20024;-71
2022/10/29 10:37:08;;;;;;;6.40;2.20;;;;;;;-146.48;100.00;60459.00;5303838;28;20028;-71
2022/10/29 10:39:45;;;;;;;7.68;2.90;;;;;;;-146.48;100.00;60459.00;5303934;28;20317;-71
2022/10/29 10:42:26;;;;;;;6.95;2.45;;;;;;;-146.48;100.00;60459.00;5304751;28;20027;-71
2022/10/29 10:45:01;;;;;;;6.72;2.10;;;;;;;-146.48;100.00;60459.00;5303413;28;20032;-71
2022/10/29 10:47:35;;;;;;;11.65;1.80;;;;;;;-146.48;100.00;60459.00;5303709;28;20084;-71
2022/10/29 10:50:26;;;;;;;10.00;2.53;;;;;;;-146.48;100.00;60459.00;5304311;28;20107;-71
2022/10/29 10:53:04;;;;;;;8.98;1.67;;;;;;;-146.48;100.00;60459.00;5304198;28;20437;-71
2022/10/29 10:55:37;;;;;;;9.52;1.88;;;;;;;-146.48;100.00;60459.00;5303127;28;20027;-71
2022/10/29 10:58:34;;;;;;;9.30;1.92;;;;;;;-146.48;100.00;60459.00;5303514;28;20123;-72
2022/10/29 11:01:11;;;;;;;5.90;1.92;;;;;;;-146.48;100.00;60459.00;5304086;28;20394;-70
2022/10/29 11:03:46;;;;;;;6.05;1.88;;;;;;;-146.48;100.00;60459.00;5303217;28;20353;-70
2022/10/29 11:06:23;;;;;;;7.43;1.65;;;;;;;-146.48;100.00;60459.00;5303023;28;20020;-70
2022/10/29 11:09:04;;;;;;;9.25;1.88;;;;;;;-146.48;100.00;60459.00;5303573;28;20111;-71
2022/10/29 11:11:44;;;;;;;9.48;1.75;;;;;;;-146.48;100.00;60459.00;5302742;28;20364;-70
2022/10/29 11:14:27;;;;;;;8.20;1.95;;;;;;;-146.48;100.00;60459.00;5303722;28;20042;-71
2022/10/29 11:17:02;;;;;;;7.13;1.63;;;;;;;-146.48;100.00;60459.00;5304122;28;20032;-70
2022/10/29 11:19:40;;;;;;;9.23;1.85;;;;;;;-146.48;100.00;60459.00;5302442;28;20024;-71
2022/10/29 11:22:30;;;;;;;7.40;1.52;;;;;;;-146.48;100.00;60459.00;5303517;28;20399;-72
2022/10/29 11:25:25;;;;;;;7.88;1.70;;;;;;;-146.48;100.00;60459.00;5303372;28;20051;-71
2022/10/29 11:27:56;;;;;;;6.10;2.00;;;;;;;-146.48;100.00;60459.00;5302136;28;20184;-71
2022/10/29 11:30:33;;;;;;;11.17;2.00;;;;;;;-146.48;100.00;60459.00;5302179;28;20127;-70
2022/10/29 11:33:21;;;;;;;9.02;2.10;;;;;;;-146.48;100.00;60459.00;5302482;28;20340;-71
2022/10/29 11:36:10;;;;;;;9.98;2.17;;;;;;;-146.48;100.00;60459.00;5302253;28;20036;-71
2022/10/29 11:39:16;;;;;;;8.25;2.15;;;;;;;-146.48;100.00;60459.00;5302311;28;20321;-71